sensor_id;sensor_type;location;lat;lon;timestamp;pressure;altitude;pressure_sealevel;temperature;humidity
39891;BME280;25564;53.312;9.790;2024-03-23T00:54:33;100360.44;;;5.76;81.60
39891;BME280;25564;53.312;9.790;2024-03-23T00:57:05;100362.34;;;5.73;81.79
39891;BME280;25564;53.312;9.790;2024-03-23T00:59:36;100362.44;;;5.71;81.75
39891;BME280;25564;53.312;9.790;2024-03-23T01:02:07;100354.81;;;5.70;81.55
39891;BME280;25564;53.312;9.790;2024-03-23T01:04:37;100349.78;;;5.68;81.65
39891;BME280;25564;53.312;9.790;2024-03-23T01:07:08;100354.94;;;5.68;81.77
39891;BME280;25564;53.312;9.790;2024-03-23T01:09:38;100347.41;;;5.65;81.54
39891;BME280;25564;53.312;9.790;2024-03-23T01:12:09;100355.13;;;5.65;81.72
39891;BME280;25564;53.312;9.790;2024-03-23T01:14:39;100358.75;;;5.63;81.60
39891;BME280;25564;53.312;9.790;2024-03-23T01:17:10;100352.13;;;5.59;81.63
39891;BME280;25564;53.312;9.790;2024-03-23T01:19:41;100341.22;;;5.55;81.47
39891;BME280;25564;53.312;9.790;2024-03-23T01:22:12;100337.03;;;5.54;81.35
39891;BME280;25564;53.312;9.790;2024-03-23T01:24:43;100346.38;;;5.55;81.62
39891;BME280;25564;53.312;9.790;2024-03-23T01:27:13;100328.56;;;5.52;81.39
39891;BME280;25564;53.312;9.790;2024-03-23T01:29:44;100342.16;;;5.54;81.50
39891;BME280;25564;53.312;9.790;2024-03-23T01:32:15;100349.22;;;5.50;81.69
39891;BME280;25564;53.312;9.790;2024-03-23T01:34:47;100334.94;;;5.46;81.31
39891;BME280;25564;53.312;9.790;2024-03-23T01:37:17;100324.75;;;5.45;81.89
39891;BME280;25564;53.312;9.790;2024-03-23T01:39:49;100326.72;;;5.41;81.74
39891;BME280;25564;53.312;9.790;2024-03-23T01:42:20;100315.88;;;5.36;81.22
39891;BME280;25564;53.312;9.790;2024-03-23T01:44:52;100319.38;;;5.35;81.59
39891;BME280;25564;53.312;9.790;2024-03-23T01:47:23;100314.44;;;5.32;81.74
39891;BME280;25564;53.312;9.790;2024-03-23T01:49:53;100307.56;;;5.33;81.82
39891;BME280;25564;53.312;9.790;2024-03-23T01:52:26;100299.13;;;5.31;81.91
39891;BME280;25564;53.312;9.790;2024-03-23T01:54:57;100288.19;;;5.27;81.47
39891;BME280;25564;53.312;9.790;2024-03-23T01:57:28;100283.16;;;5.26;81.76
39891;BME280;25564;53.312;9.790;2024-03-23T01:59:58;100284.16;;;5.23;81.50
39891;BME280;25564;53.312;9.790;2024-03-23T02:02:29;100280.88;;;5.21;81.20
39891;BME280;25564;53.312;9.790;2024-03-23T02:05:00;100293.66;;;5.23;81.88
39891;BME280;25564;53.312;9.790;2024-03-23T02:07:30;100281.88;;;5.19;81.88
39891;BME280;25564;53.312;9.790;2024-03-23T02:10:01;100269.97;;;5.18;81.77
39891;BME280;25564;53.312;9.790;2024-03-23T02:12:33;100282.28;;;5.13;81.43
39891;BME280;25564;53.312;9.790;2024-03-23T02:15:04;100283.34;;;5.10;81.71
39891;BME280;25564;53.312;9.790;2024-03-23T02:17:35;100272.41;;;5.07;81.41
39891;BME280;25564;53.312;9.790;2024-03-23T02:20:06;100272.28;;;5.08;81.03
39891;BME280;25564;53.312;9.790;2024-03-23T02:22:38;100263.06;;;5.06;81.24
39891;BME280;25564;53.312;9.790;2024-03-23T02:25:09;100270.78;;;5.06;81.49
39891;BME280;25564;53.312;9.790;2024-03-23T02:27:40;100253.69;;;5.05;81.50
39891;BME280;25564;53.312;9.790;2024-03-23T02:30:11;100258.09;;;5.03;81.62
39891;BME280;25564;53.312;9.790;2024-03-23T02:32:42;100256.38;;;5.03;81.93
39891;BME280;25564;53.312;9.790;2024-03-23T02:35:12;100251.34;;;5.02;82.01
39891;BME280;25564;53.312;9.790;2024-03-23T02:37:46;100245.47;;;5.00;81.49
39891;BME280;25564;53.312;9.790;2024-03-23T02:40:19;100242.91;;;5.00;81.62
39891;BME280;25564;53.312;9.790;2024-03-23T02:42:50;100250.69;;;4.98;81.25
39891;BME280;25564;53.312;9.790;2024-03-23T02:45:20;100244.09;;;4.94;81.42
39891;BME280;25564;53.312;9.790;2024-03-23T02:47:52;100246.97;;;4.90;81.83
39891;BME280;25564;53.312;9.790;2024-03-23T02:50:23;100245.22;;;4.90;81.27
39891;BME280;25564;53.312;9.790;2024-03-23T02:52:53;100251.09;;;4.92;81.69
39891;BME280;25564;53.312;9.790;2024-03-23T02:55:24;100250.25;;;4.92;81.49
39891;BME280;25564;53.312;9.790;2024-03-23T02:57:54;100241.81;;;4.90;81.72
39891;BME280;25564;53.312;9.790;2024-03-23T03:00:26;100233.22;;;4.91;81.82
39891;BME280;25564;53.312;9.790;2024-03-23T03:02:58;100219.63;;;4.89;81.71
39891;BME280;25564;53.312;9.790;2024-03-23T03:05:29;100221.25;;;4.90;81.63
39891;BME280;25564;53.312;9.790;2024-03-23T03:08:00;100213.56;;;4.90;81.63
39891;BME280;25564;53.312;9.790;2024-03-23T03:10:30;100205.97;;;4.88;81.83
39891;BME280;25564;53.312;9.790;2024-03-23T03:13:05;100206.78;;;4.89;81.60
39891;BME280;25564;53.312;9.790;2024-03-23T03:15:37;100208.63;;;4.87;81.92
39891;BME280;25564;53.312;9.790;2024-03-23T03:18:08;100206.97;;;4.86;82.15
39891;BME280;25564;53.312;9.790;2024-03-23T03:20:39;100214.69;;;4.86;81.44
39891;BME280;25564;53.312;9.790;2024-03-23T03:23:10;100211.38;;;4.84;81.38
39891;BME280;25564;53.312;9.790;2024-03-23T03:25:41;100205.53;;;4.82;81.49
39891;BME280;25564;53.312;9.790;2024-03-23T03:28:11;100203.78;;;4.82;81.47
39891;BME280;25564;53.312;9.790;2024-03-23T03:30:42;100198.94;;;4.78;81.10
39891;BME280;25564;53.312;9.790;2024-03-23T03:33:13;100189.50;;;4.78;81.45
39891;BME280;25564;53.312;9.790;2024-03-23T03:35:44;100183.53;;;4.78;81.19
39891;BME280;25564;53.312;9.790;2024-03-23T03:38:15;100177.56;;;4.77;82.12
39891;BME280;25564;53.312;9.790;2024-03-23T03:40:46;100181.78;;;4.78;82.02
39891;BME280;25564;53.312;9.790;2024-03-23T03:43:17;100180.03;;;4.79;81.44
39891;BME280;25564;53.312;9.790;2024-03-23T03:45:52;100186.81;;;4.80;81.38
39891;BME280;25564;53.312;9.790;2024-03-23T03:48:23;100178.50;;;4.76;81.38
39891;BME280;25564;53.312;9.790;2024-03-23T03:50:54;100179.63;;;4.72;81.88
39891;BME280;25564;53.312;9.790;2024-03-23T03:53:24;100178.69;;;4.73;81.86
39891;BME280;25564;53.312;9.790;2024-03-23T03:55:55;100175.50;;;4.69;82.17
39891;BME280;25564;53.312;9.790;2024-03-23T03:58:25;100178.16;;;4.68;81.71
39891;BME280;25564;53.312;9.790;2024-03-23T04:00:56;100167.06;;;4.67;81.77
39891;BME280;25564;53.312;9.790;2024-03-23T04:03:27;100163.78;;;4.65;81.74
39891;BME280;25564;53.312;9.790;2024-03-23T04:05:57;100175.69;;;4.66;81.73
39891;BME280;25564;53.312;9.790;2024-03-23T04:08:28;100173.22;;;4.65;81.41
39891;BME280;25564;53.312;9.790;2024-03-23T04:10:58;100158.81;;;4.62;81.42
39891;BME280;25564;53.312;9.790;2024-03-23T04:13:29;100140.13;;;4.60;81.84
39891;BME280;25564;53.312;9.790;2024-03-23T04:16:00;100124.69;;;4.60;81.55
39891;BME280;25564;53.312;9.790;2024-03-23T04:18:30;100119.78;;;4.57;81.96
39891;BME280;25564;53.312;9.790;2024-03-23T04:21:01;100134.38;;;4.57;81.52
39891;BME280;25564;53.312;9.790;2024-03-23T04:23:32;100140.50;;;4.54;81.93
39891;BME280;25564;53.312;9.790;2024-03-23T04:26:03;100150.78;;;4.54;81.37
39891;BME280;25564;53.312;9.790;2024-03-23T04:28:36;100149.16;;;4.53;82.01
39891;BME280;25564;53.312;9.790;2024-03-23T04:31:07;100138.06;;;4.53;81.21
39891;BME280;25564;53.312;9.790;2024-03-23T04:33:38;100143.31;;;4.51;81.39
39891;BME280;25564;53.312;9.790;2024-03-23T04:36:09;100151.19;;;4.48;81.19
39891;BME280;25564;53.312;9.790;2024-03-23T04:38:42;100165.16;;;4.44;81.90
39891;BME280;25564;53.312;9.790;2024-03-23T04:41:13;100161.75;;;4.44;81.31
39891;BME280;25564;53.312;9.790;2024-03-23T04:43:44;100160.13;;;4.43;81.90
39891;BME280;25564;53.312;9.790;2024-03-23T04:46:14;100151.47;;;4.44;81.28
39891;BME280;25564;53.312;9.790;2024-03-23T04:48:46;100138.94;;;4.39;81.60
39891;BME280;25564;53.312;9.790;2024-03-23T04:51:23;100126.09;;;4.39;81.44
39891;BME280;25564;53.312;9.790;2024-03-23T04:53:54;100117.66;;;4.37;81.51
39891;BME280;25564;53.312;9.790;2024-03-23T04:56:25;100126.09;;;4.39;81.57
39891;BME280;25564;53.312;9.790;2024-03-23T04:58:56;100130.44;;;4.39;81.72
39891;BME280;25564;53.312;9.790;2024-03-23T05:01:31;100146.63;;;4.39;81.97
39891;BME280;25564;53.312;9.790;2024-03-23T05:04:02;100151.03;;;4.37;81.61
39891;BME280;25564;53.312;9.790;2024-03-23T05:06:33;100139.88;;;4.38;81.30
39891;BME280;25564;53.312;9.790;2024-03-23T05:09:05;100128.75;;;4.38;81.15
39891;BME280;25564;53.312;9.790;2024-03-23T05:11:38;100125.38;;;4.37;81.92
39891;BME280;25564;53.312;9.790;2024-03-23T05:14:08;100121.47;;;4.32;81.83
39891;BME280;25564;53.312;9.790;2024-03-23T05:16:39;100130.81;;;4.33;81.62
39891;BME280;25564;53.312;9.790;2024-03-23T05:19:10;100130.00;;;4.32;81.46
39891;BME280;25564;53.312;9.790;2024-03-23T05:21:40;100136.75;;;4.33;81.66
39891;BME280;25564;53.312;9.790;2024-03-23T05:24:11;100130.91;;;4.31;81.69
39891;BME280;25564;53.312;9.790;2024-03-23T05:26:42;100136.97;;;4.30;81.99
39891;BME280;25564;53.312;9.790;2024-03-23T05:29:13;100125.75;;;4.31;81.90
39891;BME280;25564;53.312;9.790;2024-03-23T05:31:43;100108.50;;;4.33;81.96
39891;BME280;25564;53.312;9.790;2024-03-23T05:34:14;100107.59;;;4.34;81.50
39891;BME280;25564;53.312;9.790;2024-03-23T05:36:45;100100.81;;;4.33;82.14
39891;BME280;25564;53.312;9.790;2024-03-23T05:39:15;100094.66;;;4.36;81.56
39891;BME280;25564;53.312;9.790;2024-03-23T05:41:47;100100.41;;;4.39;82.06
39891;BME280;25564;53.312;9.790;2024-03-23T05:44:19;100097.03;;;4.39;82.34
39891;BME280;25564;53.312;9.790;2024-03-23T05:46:49;100093.44;;;4.41;81.65
39891;BME280;25564;53.312;9.790;2024-03-23T05:49:21;100090.69;;;4.44;81.26
39891;BME280;25564;53.312;9.790;2024-03-23T05:51:51;100104.44;;;4.43;81.72
39891;BME280;25564;53.312;9.790;2024-03-23T05:54:22;100113.78;;;4.44;81.84
39891;BME280;25564;53.312;9.790;2024-03-23T05:56:57;100113.59;;;4.47;81.71
39891;BME280;25564;53.312;9.790;2024-03-23T05:59:28;100102.28;;;4.50;81.85
39891;BME280;25564;53.312;9.790;2024-03-23T06:02:00;100105.28;;;4.56;82.28
39891;BME280;25564;53.312;9.790;2024-03-23T06:04:34;100095.84;;;4.57;81.56
39891;BME280;25564;53.312;9.790;2024-03-23T06:07:05;100086.28;;;4.59;81.60
39891;BME280;25564;53.312;9.790;2024-03-23T06:09:44;100095.53;;;4.61;82.20
39891;BME280;25564;53.312;9.790;2024-03-23T06:12:14;100087.53;;;4.66;82.07
39891;BME280;25564;53.312;9.790;2024-03-23T06:14:45;100083.19;;;4.66;81.77
39891;BME280;25564;53.312;9.790;2024-03-23T06:17:15;100077.16;;;4.67;82.11
39891;BME280;25564;53.312;9.790;2024-03-23T06:19:46;100076.13;;;4.70;82.03
39891;BME280;25564;53.312;9.790;2024-03-23T06:22:18;100084.25;;;4.77;81.73
39891;BME280;25564;53.312;9.790;2024-03-23T06:24:49;100093.91;;;4.86;82.38
39891;BME280;25564;53.312;9.790;2024-03-23T06:27:19;100096.59;;;4.97;82.35
39891;BME280;25564;53.312;9.790;2024-03-23T06:29:51;100085.59;;;5.07;82.24
39891;BME280;25564;53.312;9.790;2024-03-23T06:32:22;100084.63;;;5.21;82.23
39891;BME280;25564;53.312;9.790;2024-03-23T06:34:53;100083.13;;;5.31;82.39
39891;BME280;25564;53.312;9.790;2024-03-23T06:37:26;100082.38;;;5.41;82.31
39891;BME280;25564;53.312;9.790;2024-03-23T06:39:56;100088.41;;;5.53;82.48
39891;BME280;25564;53.312;9.790;2024-03-23T06:42:27;100088.69;;;5.61;82.24
39891;BME280;25564;53.312;9.790;2024-03-23T06:44:58;100092.81;;;5.64;82.35
39891;BME280;25564;53.312;9.790;2024-03-23T06:47:29;100097.25;;;5.62;82.07
39891;BME280;25564;53.312;9.790;2024-03-23T06:50:00;100086.13;;;5.61;82.55
39891;BME280;25564;53.312;9.790;2024-03-23T06:52:33;100088.91;;;5.58;82.29
39891;BME280;25564;53.312;9.790;2024-03-23T06:55:04;100077.19;;;5.54;82.43
39891;BME280;25564;53.312;9.790;2024-03-23T06:57:36;100075.94;;;5.60;82.56
39891;BME280;25564;53.312;9.790;2024-03-23T07:00:08;100070.38;;;5.66;82.17
39891;BME280;25564;53.312;9.790;2024-03-23T07:02:40;100076.44;;;5.77;82.66
39891;BME280;25564;53.312;9.790;2024-03-23T07:05:10;100076.72;;;5.85;82.70
39891;BME280;25564;53.312;9.790;2024-03-23T07:07:41;100080.22;;;5.84;81.86
39891;BME280;25564;53.312;9.790;2024-03-23T07:10:12;100079.78;;;5.90;82.45
39891;BME280;25564;53.312;9.790;2024-03-23T07:12:42;100079.00;;;6.01;82.68
39891;BME280;25564;53.312;9.790;2024-03-23T07:15:13;100083.63;;;6.08;82.49
39891;BME280;25564;53.312;9.790;2024-03-23T07:17:47;100079.91;;;6.12;82.24
39891;BME280;25564;53.312;9.790;2024-03-23T07:20:17;100087.28;;;6.17;82.05
39891;BME280;25564;53.312;9.790;2024-03-23T07:22:48;100086.34;;;6.18;82.22
39891;BME280;25564;53.312;9.790;2024-03-23T07:25:20;100081.91;;;6.20;82.43
39891;BME280;25564;53.312;9.790;2024-03-23T07:27:53;100079.47;;;6.18;82.39
39891;BME280;25564;53.312;9.790;2024-03-23T07:30:24;100079.22;;;6.21;81.91
39891;BME280;25564;53.312;9.790;2024-03-23T07:32:54;100079.38;;;6.31;82.05
39891;BME280;25564;53.312;9.790;2024-03-23T07:35:25;100078.16;;;6.48;82.50
39891;BME280;25564;53.312;9.790;2024-03-23T07:37:56;100066.97;;;6.71;82.14
39891;BME280;25564;53.312;9.790;2024-03-23T07:40:26;100076.38;;;6.94;82.31
39891;BME280;25564;53.312;9.790;2024-03-23T07:42:57;100072.53;;;7.10;82.33
39891;BME280;25564;53.312;9.790;2024-03-23T07:45:28;100078.75;;;7.19;82.06
39891;BME280;25564;53.312;9.790;2024-03-23T07:47:58;100075.44;;;7.28;81.79
39891;BME280;25564;53.312;9.790;2024-03-23T07:50:29;100078.03;;;7.39;81.72
39891;BME280;25564;53.312;9.790;2024-03-23T07:52:59;100071.47;;;7.46;81.53
39891;BME280;25564;53.312;9.790;2024-03-23T07:55:30;100067.22;;;7.56;81.51
39891;BME280;25564;53.312;9.790;2024-03-23T07:58:01;100058.44;;;7.70;81.73
39891;BME280;25564;53.312;9.790;2024-03-23T08:00:32;100064.75;;;7.77;81.41
39891;BME280;25564;53.312;9.790;2024-03-23T08:03:03;100063.44;;;7.82;81.17
39891;BME280;25564;53.312;9.790;2024-03-23T08:05:34;100068.00;;;7.90;81.35
39891;BME280;25564;53.312;9.790;2024-03-23T08:08:05;100060.47;;;7.98;81.32
39891;BME280;25564;53.312;9.790;2024-03-23T08:10:36;100060.28;;;8.11;81.24
39891;BME280;25564;53.312;9.790;2024-03-23T08:13:06;100064.22;;;8.26;81.36
39891;BME280;25564;53.312;9.790;2024-03-23T08:15:37;100062.28;;;8.39;80.81
39891;BME280;25564;53.312;9.790;2024-03-23T08:18:08;100062.44;;;8.58;80.82
39891;BME280;25564;53.312;9.790;2024-03-23T08:20:39;100056.16;;;8.81;80.98
39891;BME280;25564;53.312;9.790;2024-03-23T08:23:09;100056.97;;;8.82;80.51
39891;BME280;25564;53.312;9.790;2024-03-23T08:25:40;100052.88;;;9.00;80.40
39891;BME280;25564;53.312;9.790;2024-03-23T08:28:11;100054.06;;;9.16;80.37
39891;BME280;25564;53.312;9.790;2024-03-23T08:30:41;100053.97;;;9.07;79.81
39891;BME280;25564;53.312;9.790;2024-03-23T08:33:12;100045.50;;;8.95;80.14
39891;BME280;25564;53.312;9.790;2024-03-23T08:35:42;100052.81;;;8.90;79.89
39891;BME280;25564;53.312;9.790;2024-03-23T08:38:13;100049.19;;;9.02;80.05
39891;BME280;25564;53.312;9.790;2024-03-23T08:40:43;100040.72;;;9.21;80.40
39891;BME280;25564;53.312;9.790;2024-03-23T08:43:14;100048.97;;;9.35;79.82
39891;BME280;25564;53.312;9.790;2024-03-23T08:45:44;100050.03;;;9.42;79.73
39891;BME280;25564;53.312;9.790;2024-03-23T08:48:15;100046.31;;;9.26;79.00
39891;BME280;25564;53.312;9.790;2024-03-23T08:50:47;100042.84;;;9.16;79.12
39891;BME280;25564;53.312;9.790;2024-03-23T08:53:29;100044.19;;;9.10;78.74
39891;BME280;25564;53.312;9.790;2024-03-23T08:56:03;100041.25;;;8.94;79.06
39891;BME280;25564;53.312;9.790;2024-03-23T08:58:35;100047.97;;;8.76;78.80
39891;BME280;25564;53.312;9.790;2024-03-23T09:01:08;100041.47;;;8.61;78.86
39891;BME280;25564;53.312;9.790;2024-03-23T09:03:41;100039.22;;;8.47;79.05
39891;BME280;25564;53.312;9.790;2024-03-23T09:06:14;100039.97;;;8.58;79.45
39891;BME280;25564;53.312;9.790;2024-03-23T09:08:45;100036.75;;;8.96;79.87
39891;BME280;25564;53.312;9.790;2024-03-23T09:11:15;100037.38;;;9.39;79.73
39891;BME280;25564;53.312;9.790;2024-03-23T09:13:46;100038.50;;;9.56;78.58
39891;BME280;25564;53.312;9.790;2024-03-23T09:16:16;100030.06;;;9.64;78.73
39891;BME280;25564;53.312;9.790;2024-03-23T09:18:47;100034.03;;;9.68;78.60
39891;BME280;25564;53.312;9.790;2024-03-23T09:21:18;100034.03;;;9.68;78.16
39891;BME280;25564;53.312;9.790;2024-03-23T09:23:49;100027.47;;;9.64;77.88
39891;BME280;25564;53.312;9.790;2024-03-23T09:26:19;100029.09;;;9.45;77.92
39891;BME280;25564;53.312;9.790;2024-03-23T09:28:50;100027.66;;;9.22;78.24
39891;BME280;25564;53.312;9.790;2024-03-23T09:31:20;100035.84;;;8.97;78.30
39891;BME280;25564;53.312;9.790;2024-03-23T09:33:52;100033.66;;;8.72;77.74
39891;BME280;25564;53.312;9.790;2024-03-23T09:36:23;100034.88;;;8.47;78.08
39891;BME280;25564;53.312;9.790;2024-03-23T09:38:53;100034.84;;;8.27;77.62
39891;BME280;25564;53.312;9.790;2024-03-23T09:41:24;100038.81;;;8.10;77.76
39891;BME280;25564;53.312;9.790;2024-03-23T09:43:54;100036.50;;;7.96;77.49
39891;BME280;25564;53.312;9.790;2024-03-23T09:46:25;100031.03;;;7.89;77.90
39891;BME280;25564;53.312;9.790;2024-03-23T09:48:56;100025.41;;;7.84;77.89
39891;BME280;25564;53.312;9.790;2024-03-23T09:51:26;100033.47;;;7.91;77.92
39891;BME280;25564;53.312;9.790;2024-03-23T09:53:57;100024.50;;;8.06;77.96
39891;BME280;25564;53.312;9.790;2024-03-23T09:56:27;100022.88;;;8.26;77.44
39891;BME280;25564;53.312;9.790;2024-03-23T09:59:02;100009.25;;;8.65;78.14
39891;BME280;25564;53.312;9.790;2024-03-23T10:01:33;100017.16;;;8.94;77.70
39891;BME280;25564;53.312;9.790;2024-03-23T10:04:04;100020.19;;;9.08;77.48
39891;BME280;25564;53.312;9.790;2024-03-23T10:06:35;100014.72;;;9.22;77.32
39891;BME280;25564;53.312;9.790;2024-03-23T10:09:27;100008.03;;;9.20;76.61
39891;BME280;25564;53.312;9.790;2024-03-23T10:12:11;100004.63;;;9.19;76.50
39891;BME280;25564;53.312;9.790;2024-03-23T10:14:44;100000.91;;;9.12;76.38
39891;BME280;25564;53.312;9.790;2024-03-23T10:17:18;99998.75;;;9.17;76.09
39891;BME280;25564;53.312;9.790;2024-03-23T10:19:55;100000.13;;;9.21;75.95
39891;BME280;25564;53.312;9.790;2024-03-23T10:22:26;99997.34;;;9.04;75.25
39891;BME280;25564;53.312;9.790;2024-03-23T10:25:07;99989.59;;;8.83;75.18
39891;BME280;25564;53.312;9.790;2024-03-23T10:27:38;99991.47;;;8.72;75.75
39891;BME280;25564;53.312;9.790;2024-03-23T10:30:13;99985.94;;;8.86;74.82
39891;BME280;25564;53.312;9.790;2024-03-23T10:32:47;99983.06;;;8.79;73.97
39891;BME280;25564;53.312;9.790;2024-03-23T10:35:21;99986.00;;;8.65;74.27
39891;BME280;25564;53.312;9.790;2024-03-23T10:37:52;99972.91;;;8.57;72.56
39891;BME280;25564;53.312;9.790;2024-03-23T10:40:26;99980.13;;;8.63;73.08
39891;BME280;25564;53.312;9.790;2024-03-23T10:42:58;99979.09;;;8.75;73.33
39891;BME280;25564;53.312;9.790;2024-03-23T10:45:29;99985.53;;;8.81;73.27
39891;BME280;25564;53.312;9.790;2024-03-23T10:48:01;99982.88;;;9.01;73.27
39891;BME280;25564;53.312;9.790;2024-03-23T10:50:32;99975.16;;;9.11;73.73
39891;BME280;25564;53.312;9.790;2024-03-23T10:53:03;99977.19;;;9.37;73.66
39891;BME280;25564;53.312;9.790;2024-03-23T10:55:34;99972.72;;;9.68;73.67
39891;BME280;25564;53.312;9.790;2024-03-23T10:58:05;99967.81;;;9.94;73.62
39891;BME280;25564;53.312;9.790;2024-03-23T11:00:36;99966.94;;;10.32;74.00
39891;BME280;25564;53.312;9.790;2024-03-23T11:03:29;99966.75;;;10.98;73.30
39891;BME280;25564;53.312;9.790;2024-03-23T11:06:00;99958.88;;;11.35;73.36
39891;BME280;25564;53.312;9.790;2024-03-23T11:08:32;99954.47;;;11.63;72.97
39891;BME280;25564;53.312;9.790;2024-03-23T11:13:48;99939.75;;;11.71;72.09
39891;BME280;25564;53.312;9.790;2024-03-23T11:16:26;99959.25;;;11.58;72.06
39891;BME280;25564;53.312;9.790;2024-03-23T11:19:34;99949.81;;;11.84;72.52
39891;BME280;25564;53.312;9.790;2024-03-23T11:22:05;99956.28;;;12.23;72.10
39891;BME280;25564;53.312;9.790;2024-03-23T11:24:36;99954.22;;;12.09;70.54
39891;BME280;25564;53.312;9.790;2024-03-23T11:27:16;99944.00;;;11.90;70.34
39891;BME280;25564;53.312;9.790;2024-03-23T11:29:47;99950.88;;;11.64;71.01
39891;BME280;25564;53.312;9.790;2024-03-23T11:32:17;99957.56;;;11.49;70.27
39891;BME280;25564;53.312;9.790;2024-03-23T11:34:48;99967.41;;;11.28;70.35
39891;BME280;25564;53.312;9.790;2024-03-23T11:37:18;99970.34;;;11.15;70.22
39891;BME280;25564;53.312;9.790;2024-03-23T11:39:49;99972.22;;;11.23;69.84
39891;BME280;25564;53.312;9.790;2024-03-23T11:42:20;99958.75;;;11.10;69.03
39891;BME280;25564;53.312;9.790;2024-03-23T11:44:52;99963.28;;;11.07;69.72
39891;BME280;25564;53.312;9.790;2024-03-23T11:47:22;99953.69;;;11.18;69.65
39891;BME280;25564;53.312;9.790;2024-03-23T11:49:53;99949.66;;;11.23;69.74
39891;BME280;25564;53.312;9.790;2024-03-23T11:52:23;99929.72;;;11.24;69.61
39891;BME280;25564;53.312;9.790;2024-03-23T11:55:04;99924.41;;;11.43;68.90
39891;BME280;25564;53.312;9.790;2024-03-23T11:57:36;99932.28;;;11.51;67.92
39891;BME280;25564;53.312;9.790;2024-03-23T12:00:20;99924.03;;;11.55;67.85
39891;BME280;25564;53.312;9.790;2024-03-23T12:02:51;99935.31;;;11.46;67.87
39891;BME280;25564;53.312;9.790;2024-03-23T12:05:23;99919.06;;;11.44;67.98
39891;BME280;25564;53.312;9.790;2024-03-23T12:07:53;99931.38;;;11.60;68.19
39891;BME280;25564;53.312;9.790;2024-03-23T12:10:24;99915.03;;;11.85;67.97
39891;BME280;25564;53.312;9.790;2024-03-23T12:13:01;99922.81;;;12.03;66.28
39891;BME280;25564;53.312;9.790;2024-03-23T12:15:32;99928.88;;;11.86;64.77
39891;BME280;25564;53.312;9.790;2024-03-23T12:18:09;99922.03;;;11.67;65.46
39891;BME280;25564;53.312;9.790;2024-03-23T12:20:40;99937.31;;;11.70;66.35
39891;BME280;25564;53.312;9.790;2024-03-23T12:23:12;99946.22;;;11.67;66.66
39891;BME280;25564;53.312;9.790;2024-03-23T12:25:44;99945.19;;;11.43;67.03
39891;BME280;25564;53.312;9.790;2024-03-23T12:28:15;99937.44;;;11.16;67.37
39891;BME280;25564;53.312;9.790;2024-03-23T12:30:45;99958.00;;;10.99;67.86
39891;BME280;25564;53.312;9.790;2024-03-23T12:33:16;99961.34;;;10.82;68.24
39891;BME280;25564;53.312;9.790;2024-03-23T12:35:50;99952.03;;;10.89;68.71
39891;BME280;25564;53.312;9.790;2024-03-23T12:38:21;99956.78;;;11.21;68.67
39891;BME280;25564;53.312;9.790;2024-03-23T12:40:51;99945.41;;;11.04;68.64
39891;BME280;25564;53.312;9.790;2024-03-23T12:43:22;99977.84;;;10.54;66.93
39891;BME280;25564;53.312;9.790;2024-03-23T12:45:52;99973.50;;;10.16;67.76
39891;BME280;25564;53.312;9.790;2024-03-23T12:48:24;99985.50;;;9.70;67.95
39891;BME280;25564;53.312;9.790;2024-03-23T12:50:54;99965.28;;;9.25;67.53
39891;BME280;25564;53.312;9.790;2024-03-23T12:53:26;99960.00;;;9.06;68.59
39891;BME280;25564;53.312;9.790;2024-03-23T12:55:57;99960.25;;;8.94;67.86
39891;BME280;25564;53.312;9.790;2024-03-23T12:58:27;99959.38;;;8.74;67.95
39891;BME280;25564;53.312;9.790;2024-03-23T13:00:58;99964.59;;;8.53;68.09
39891;BME280;25564;53.312;9.790;2024-03-23T13:03:29;99956.66;;;8.76;69.08
39891;BME280;25564;53.312;9.790;2024-03-23T13:05:59;99963.03;;;9.11;67.95
39891;BME280;25564;53.312;9.790;2024-03-23T13:08:30;99970.56;;;9.14;67.41
39891;BME280;25564;53.312;9.790;2024-03-23T13:11:01;99973.47;;;8.91;66.10
39891;BME280;25564;53.312;9.790;2024-03-23T13:13:31;100000.13;;;8.61;65.67
39891;BME280;25564;53.312;9.790;2024-03-23T13:16:04;100019.66;;;8.33;65.39
39891;BME280;25564;53.312;9.790;2024-03-23T13:18:35;100021.50;;;8.01;66.51
39891;BME280;25564;53.312;9.790;2024-03-23T13:21:06;100036.13;;;7.69;67.22
39891;BME280;25564;53.312;9.790;2024-03-23T13:23:36;100041.88;;;7.50;68.66
39891;BME280;25564;53.312;9.790;2024-03-23T13:26:08;100038.28;;;7.31;68.26
39891;BME280;25564;53.312;9.790;2024-03-23T13:28:38;100057.19;;;7.09;68.58
39891;BME280;25564;53.312;9.790;2024-03-23T13:31:09;100051.06;;;6.99;69.95
39891;BME280;25564;53.312;9.790;2024-03-23T13:33:39;100064.16;;;6.85;70.24
39891;BME280;25564;53.312;9.790;2024-03-23T13:36:12;100054.06;;;6.60;70.80
39891;BME280;25564;53.312;9.790;2024-03-23T13:38:43;100041.72;;;6.41;71.39
39891;BME280;25564;53.312;9.790;2024-03-23T13:41:14;100036.31;;;6.33;72.27
39891;BME280;25564;53.312;9.790;2024-03-23T13:43:44;100033.16;;;6.41;72.25
39891;BME280;25564;53.312;9.790;2024-03-23T13:46:15;100037.44;;;6.75;72.99
39891;BME280;25564;53.312;9.790;2024-03-23T13:48:46;100027.16;;;7.08;72.47
39891;BME280;25564;53.312;9.790;2024-03-23T13:51:23;100019.19;;;7.11;72.48
39891;BME280;25564;53.312;9.790;2024-03-23T13:53:55;100012.38;;;6.99;72.56
39891;BME280;25564;53.312;9.790;2024-03-23T13:56:29;100010.28;;;6.93;73.23
39891;BME280;25564;53.312;9.790;2024-03-23T13:59:01;100011.94;;;6.94;73.10
39891;BME280;25564;53.312;9.790;2024-03-23T14:01:31;100013.78;;;7.14;73.25
39891;BME280;25564;53.312;9.790;2024-03-23T14:04:04;100013.31;;;7.31;73.06
39891;BME280;25564;53.312;9.790;2024-03-23T14:06:34;100008.56;;;7.47;73.23
39891;BME280;25564;53.312;9.790;2024-03-23T14:09:05;99995.78;;;7.57;73.45
39891;BME280;25564;53.312;9.790;2024-03-23T14:11:39;100000.81;;;7.69;73.04
39891;BME280;25564;53.312;9.790;2024-03-23T14:14:11;100002.09;;;7.75;73.14
39891;BME280;25564;53.312;9.790;2024-03-23T14:16:43;99996.31;;;7.82;73.67
39891;BME280;25564;53.312;9.790;2024-03-23T14:19:13;100011.38;;;7.98;73.20